createdAt,value
2018-12-12T00:01:01.032Z,2.20
2018-12-12T00:03:29.213Z,2.20
2018-12-12T00:05:57.404Z,2.20
2018-12-12T00:08:25.567Z,2.20
2018-12-12T00:10:53.749Z,2.20
2018-12-12T00:13:21.921Z,2.30
2018-12-12T00:15:50.105Z,2.30
2018-12-12T00:18:18.283Z,2.40
2018-12-12T00:20:46.451Z,2.40
2018-12-12T00:23:14.721Z,2.50
2018-12-12T00:25:42.895Z,2.50
2018-12-12T00:28:11.152Z,2.60
2018-12-12T00:30:39.561Z,2.70
2018-12-12T00:33:07.756Z,2.70
2018-12-12T00:35:35.963Z,2.80
2018-12-12T00:38:04.200Z,2.70
2018-12-12T00:40:32.376Z,2.60
2018-12-12T00:43:00.570Z,2.50
2018-12-12T00:45:28.726Z,2.50
2018-12-12T00:47:56.908Z,2.40
2018-12-12T00:50:25.066Z,2.40
2018-12-12T00:52:53.245Z,2.30
2018-12-12T00:55:21.403Z,2.20
2018-12-12T00:57:49.604Z,2.10
2018-12-12T01:00:17.827Z,2.10
2018-12-12T01:02:46.033Z,2.00
2018-12-12T01:05:14.266Z,2.00
2018-12-12T01:07:42.485Z,1.90
2018-12-12T01:10:10.644Z,1.90
2018-12-12T01:12:38.824Z,1.90
2018-12-12T01:15:07.117Z,1.80
2018-12-12T01:17:35.311Z,1.80
2018-12-12T01:20:04.856Z,1.70
2018-12-12T01:22:33.025Z,1.70
2018-12-12T01:25:01.219Z,1.70
2018-12-12T01:27:29.397Z,1.60
2018-12-12T01:29:57.618Z,1.60
2018-12-12T01:32:25.793Z,1.60
2018-12-12T01:34:54.024Z,1.50
2018-12-12T01:37:22.821Z,1.50
2018-12-12T01:39:51.010Z,1.50
2018-12-12T01:42:19.184Z,1.50
2018-12-12T01:44:47.360Z,1.50
2018-12-12T01:47:15.654Z,1.50
2018-12-12T01:49:43.809Z,1.40
2018-12-12T01:52:11.996Z,1.40
2018-12-12T01:54:40.391Z,1.40
2018-12-12T01:57:08.628Z,1.40
2018-12-12T01:59:36.991Z,1.40
2018-12-12T02:02:05.173Z,1.40
2018-12-12T02:04:33.368Z,1.50
2018-12-12T02:07:01.540Z,1.60
2018-12-12T02:09:29.690Z,1.70
2018-12-12T02:11:57.866Z,1.80
2018-12-12T02:14:26.031Z,1.90
2018-12-12T02:16:54.220Z,2.00
2018-12-12T02:19:22.477Z,2.10
2018-12-12T02:21:50.644Z,2.30
2018-12-12T02:24:18.832Z,2.30
2018-12-12T02:26:47.186Z,2.40
2018-12-12T02:29:15.348Z,2.50
2018-12-12T02:31:43.537Z,2.60
2018-12-12T02:34:11.707Z,2.70
2018-12-12T02:36:39.888Z,2.70
2018-12-12T02:39:08.116Z,2.80
2018-12-12T02:41:36.262Z,2.80
2018-12-12T02:44:04.533Z,2.90
2018-12-12T02:46:32.691Z,3.00
2018-12-12T02:49:00.918Z,3.10
2018-12-12T02:51:29.087Z,3.10
2018-12-12T02:53:57.370Z,3.10
2018-12-12T02:56:25.520Z,3.20
2018-12-12T02:58:53.699Z,3.20
2018-12-12T03:01:21.894Z,3.10
2018-12-12T03:03:50.173Z,3.10
2018-12-12T03:06:18.346Z,3.10
2018-12-12T03:08:46.588Z,3.10
2018-12-12T03:11:14.759Z,3.00
2018-12-12T03:13:42.945Z,3.00
2018-12-12T03:16:11.116Z,3.00
2018-12-12T03:18:39.292Z,3.10
2018-12-12T03:21:07.481Z,3.10
2018-12-12T03:23:35.659Z,3.10
2018-12-12T03:26:03.858Z,3.10
2018-12-12T03:28:32.034Z,3.20
2018-12-12T03:31:00.232Z,3.20
2018-12-12T03:33:28.494Z,3.30
2018-12-12T03:35:56.677Z,3.30
2018-12-12T03:38:24.873Z,3.40
2018-12-12T03:40:53.251Z,3.40
2018-12-12T03:43:21.407Z,3.40
2018-12-12T03:45:49.613Z,3.40
2018-12-12T03:48:17.779Z,3.50
2018-12-12T03:50:45.957Z,3.50
2018-12-12T03:53:14.137Z,3.50
2018-12-12T03:55:42.296Z,3.50
2018-12-12T03:58:10.479Z,3.50
2018-12-12T04:00:39.171Z,3.60
2018-12-12T04:03:07.440Z,3.60
2018-12-12T04:05:35.676Z,3.60
2018-12-12T04:08:03.849Z,3.60
2018-12-12T04:10:32.008Z,3.60
2018-12-12T04:13:00.277Z,3.50
2018-12-12T04:15:28.430Z,3.40
2018-12-12T04:17:56.601Z,3.40
2018-12-12T04:20:24.768Z,3.40
2018-12-12T04:22:52.969Z,3.30
2018-12-12T04:25:21.128Z,3.30
2018-12-12T04:27:49.324Z,3.30
2018-12-12T04:30:17.482Z,3.30
2018-12-12T04:32:45.746Z,3.30
2018-12-12T04:35:13.994Z,3.40
2018-12-12T04:37:42.172Z,3.50
2018-12-12T04:40:10.349Z,3.50
2018-12-12T04:42:38.520Z,3.50
2018-12-12T04:45:06.772Z,3.60
2018-12-12T04:47:34.932Z,3.60
2018-12-12T04:50:03.660Z,3.60
2018-12-12T04:52:31.826Z,3.60
2018-12-12T04:55:00.012Z,3.50
2018-12-12T04:57:28.199Z,3.50
2018-12-12T04:59:56.452Z,3.30
2018-12-12T05:02:24.611Z,3.20
2018-12-12T05:04:53.073Z,3.10
2018-12-12T05:07:21.356Z,3.00
2018-12-12T05:09:49.532Z,3.00
2018-12-12T05:12:17.691Z,2.90
2018-12-12T05:14:45.887Z,2.90
2018-12-12T05:17:14.056Z,2.80
2018-12-12T05:19:42.507Z,2.70
2018-12-12T05:22:10.663Z,2.70
2018-12-12T05:24:38.876Z,2.60
2018-12-12T05:27:07.041Z,2.50
2018-12-12T05:29:35.246Z,2.50
2018-12-12T05:32:03.465Z,2.40
2018-12-12T05:34:31.627Z,2.40
2018-12-12T05:36:59.812Z,2.30
2018-12-12T05:39:27.983Z,2.20
2018-12-12T05:41:56.159Z,2.20
2018-12-12T05:44:24.321Z,2.10
2018-12-12T05:46:52.577Z,2.00
2018-12-12T05:49:20.753Z,2.00
2018-12-12T05:51:49.018Z,2.00
2018-12-12T05:54:17.172Z,1.90
2018-12-12T05:56:45.351Z,1.90
2018-12-12T05:59:13.516Z,1.90
2018-12-12T06:01:41.976Z,1.90
2018-12-12T06:04:10.143Z,1.90
2018-12-12T06:06:38.320Z,1.80
2018-12-12T06:09:06.476Z,1.80
2018-12-12T06:11:34.779Z,1.80
2018-12-12T06:14:02.980Z,1.80
2018-12-12T06:16:31.177Z,1.80
2018-12-12T06:18:59.337Z,1.80
2018-12-12T06:21:27.492Z,1.80
2018-12-12T06:23:55.767Z,1.90
2018-12-12T06:26:23.897Z,2.00
2018-12-12T06:28:52.077Z,2.10
2018-12-12T06:31:20.240Z,2.20
2018-12-12T06:33:48.436Z,2.30
2018-12-12T06:36:16.668Z,2.40
2018-12-12T06:38:44.860Z,2.40
2018-12-12T06:41:13.024Z,2.50
2018-12-12T06:43:41.246Z,2.50
2018-12-12T06:46:09.471Z,2.60
2018-12-12T06:48:37.647Z,2.60
2018-12-12T06:51:05.815Z,2.70
2018-12-12T06:53:34.031Z,2.70
2018-12-12T06:56:02.224Z,2.70
2018-12-12T06:58:30.404Z,2.80
2018-12-12T07:00:58.583Z,2.80
2018-12-12T07:03:26.777Z,2.90
2018-12-12T07:05:54.939Z,2.80
2018-12-12T07:08:23.124Z,2.80
2018-12-12T07:10:51.284Z,2.90
2018-12-12T07:13:19.459Z,2.90
2018-12-12T07:15:47.648Z,2.90
2018-12-12T07:18:15.816Z,2.90
2018-12-12T07:20:43.993Z,2.90
2018-12-12T07:23:12.162Z,2.90
2018-12-12T07:25:40.344Z,2.80
2018-12-12T07:28:08.589Z,2.90
2018-12-12T07:30:36.772Z,2.90
2018-12-12T07:33:04.961Z,2.90
2018-12-12T07:35:33.141Z,2.90
2018-12-12T07:38:01.306Z,2.90
2018-12-12T07:40:29.490Z,2.90
2018-12-12T07:42:57.660Z,2.90
2018-12-12T07:45:25.847Z,2.90
2018-12-12T07:47:54.300Z,2.90
2018-12-12T07:50:22.468Z,2.90
2018-12-12T07:52:50.633Z,2.90
2018-12-12T07:55:18.833Z,2.80
2018-12-12T07:57:46.995Z,2.80
2018-12-12T08:00:15.163Z,2.70
2018-12-12T08:02:43.356Z,2.70
2018-12-12T08:05:11.673Z,2.70
2018-12-12T08:07:39.856Z,2.80
2018-12-12T08:10:08.020Z,2.80
2018-12-12T08:12:36.206Z,2.70
2018-12-12T08:15:04.543Z,2.80
2018-12-12T08:17:32.724Z,2.80
2018-12-12T08:20:00.886Z,2.80
2018-12-12T08:22:29.062Z,2.80
2018-12-12T08:24:57.308Z,2.90
2018-12-12T08:27:25.532Z,2.90
2018-12-12T08:29:53.792Z,2.90
2018-12-12T08:32:21.955Z,2.90
2018-12-12T08:34:50.416Z,3.00
2018-12-12T08:37:18.684Z,3.00
2018-12-12T08:39:46.971Z,3.10
2018-12-12T08:42:15.160Z,3.10
2018-12-12T08:44:43.325Z,3.20
2018-12-12T08:47:11.525Z,3.30
2018-12-12T08:49:39.691Z,3.40
2018-12-12T08:52:07.843Z,3.50
2018-12-12T08:54:36.408Z,3.50
2018-12-12T08:57:04.587Z,3.60
2018-12-12T08:59:32.845Z,3.60
2018-12-12T09:02:01.012Z,3.60
2018-12-12T09:04:29.278Z,3.70
2018-12-12T09:06:57.427Z,3.80
2018-12-12T09:09:25.600Z,3.80
2018-12-12T09:11:53.756Z,3.90
2018-12-12T09:14:22.030Z,4.00
2018-12-12T09:16:50.164Z,4.10
2018-12-12T09:19:18.791Z,4.10
2018-12-12T09:21:46.949Z,4.20
2018-12-12T09:24:15.124Z,4.20
2018-12-12T09:26:43.304Z,4.20
2018-12-12T09:29:11.462Z,4.30
2018-12-12T09:31:39.875Z,4.30
2018-12-12T09:34:08.041Z,4.20
2018-12-12T09:36:36.220Z,4.30
2018-12-12T09:39:05.685Z,4.30
2018-12-12T09:41:33.872Z,4.40
2018-12-12T09:44:02.051Z,4.40
2018-12-12T09:46:30.203Z,4.40
2018-12-12T09:48:58.373Z,4.40
2018-12-12T09:51:26.580Z,4.40
2018-12-12T09:53:54.745Z,4.40
2018-12-12T09:56:22.941Z,4.50
2018-12-12T09:58:51.112Z,4.50
2018-12-12T10:01:19.393Z,4.60
2018-12-12T10:03:47.528Z,4.60
2018-12-12T10:06:15.726Z,4.60
2018-12-12T10:08:44.012Z,4.60
2018-12-12T10:11:12.232Z,4.70
2018-12-12T10:13:40.380Z,4.70
2018-12-12T10:16:08.576Z,4.70
2018-12-12T10:18:36.744Z,4.80
2018-12-12T10:21:04.912Z,4.80
2018-12-12T10:23:33.163Z,4.80
2018-12-12T10:26:01.360Z,4.90
2018-12-12T10:28:29.905Z,4.90
2018-12-12T10:30:58.172Z,4.90
2018-12-12T10:33:26.478Z,5.00
2018-12-12T10:35:54.728Z,5.00
2018-12-12T10:38:22.960Z,5.00
2018-12-12T10:40:51.360Z,5.10
2018-12-12T10:43:19.554Z,5.10
2018-12-12T10:45:47.708Z,5.10
2018-12-12T10:48:15.894Z,5.10
2018-12-12T10:50:44.101Z,5.20
2018-12-12T10:53:12.279Z,5.30
2018-12-12T10:55:40.481Z,5.30
2018-12-12T10:58:08.694Z,5.30
2018-12-12T11:00:36.870Z,5.30
2018-12-12T11:03:05.051Z,5.40
2018-12-12T11:05:33.236Z,5.50
2018-12-12T11:08:01.774Z,5.50
2018-12-12T11:10:29.961Z,5.60
2018-12-12T11:12:58.148Z,5.60
2018-12-12T11:15:26.407Z,5.60
2018-12-12T11:17:54.548Z,5.70
2018-12-12T11:20:22.856Z,5.70
2018-12-12T11:22:51.007Z,5.70
2018-12-12T11:25:19.206Z,5.70
2018-12-12T11:27:47.393Z,5.70
2018-12-12T11:30:15.568Z,5.70
2018-12-12T11:32:43.736Z,5.80
2018-12-12T11:35:11.920Z,5.80
2018-12-12T11:37:40.158Z,5.90
2018-12-12T11:40:08.462Z,5.80
2018-12-12T11:42:36.668Z,5.90
2018-12-12T11:45:05.077Z,5.90
2018-12-12T11:47:33.261Z,6.00
2018-12-12T11:50:02.774Z,6.00
2018-12-12T11:52:30.936Z,6.00
2018-12-12T11:54:59.205Z,6.00
2018-12-12T11:57:27.379Z,5.90
2018-12-12T11:59:55.558Z,5.90
2018-12-12T12:02:24.115Z,5.90
2018-12-12T12:04:52.546Z,5.80
2018-12-12T12:07:20.742Z,5.70
2018-12-12T12:09:48.916Z,5.70
2018-12-12T12:12:17.140Z,5.80
2018-12-12T12:14:45.429Z,5.90
2018-12-12T12:17:13.608Z,6.00
2018-12-12T12:19:41.767Z,6.10
2018-12-12T12:22:09.996Z,6.10
2018-12-12T12:24:38.368Z,6.20
2018-12-12T12:27:06.564Z,6.20
2018-12-12T12:29:35.031Z,6.30
2018-12-12T12:32:03.256Z,6.30
2018-12-12T12:34:31.770Z,6.40
2018-12-12T12:36:59.897Z,6.40
2018-12-12T12:39:28.156Z,6.50
2018-12-12T12:41:56.330Z,6.40
2018-12-12T12:44:24.510Z,6.40
2018-12-12T12:46:52.689Z,6.40
2018-12-12T12:49:20.895Z,6.30
2018-12-12T12:51:49.087Z,6.40
2018-12-12T12:54:17.288Z,6.30
2018-12-12T12:56:45.482Z,6.30
2018-12-12T12:59:13.659Z,6.20
2018-12-12T13:01:41.824Z,6.20
2018-12-12T13:04:10.173Z,6.10
2018-12-12T13:06:38.449Z,6.10
2018-12-12T13:09:06.595Z,6.00
2018-12-12T13:11:34.791Z,5.90
2018-12-12T13:14:03.221Z,5.80
2018-12-12T13:16:31.494Z,5.80
2018-12-12T13:18:59.664Z,5.70
2018-12-12T13:21:27.876Z,5.70
2018-12-12T13:23:56.042Z,5.70
2018-12-12T13:26:24.240Z,5.80
2018-12-12T13:28:52.444Z,5.80
2018-12-12T13:31:20.677Z,5.80
2018-12-12T13:33:48.849Z,5.80
2018-12-12T13:36:17.135Z,5.80
2018-12-12T13:38:45.319Z,5.80
2018-12-12T13:41:13.512Z,5.70
2018-12-12T13:43:41.707Z,5.70
2018-12-12T13:46:09.955Z,5.70
2018-12-12T13:48:38.211Z,5.60
2018-12-12T13:51:06.471Z,5.60
2018-12-12T13:53:34.667Z,5.60
2018-12-12T13:56:02.925Z,5.60
2018-12-12T13:58:31.138Z,5.60
2018-12-12T14:00:59.317Z,5.60
2018-12-12T14:03:27.524Z,5.70
2018-12-12T14:05:55.686Z,5.60
2018-12-12T14:08:23.918Z,5.60
2018-12-12T14:10:52.107Z,5.60
2018-12-12T14:13:20.377Z,5.60
2018-12-12T14:15:48.541Z,5.60
2018-12-12T14:18:16.817Z,5.50
2018-12-12T14:20:44.979Z,5.50
2018-12-12T14:23:13.211Z,5.50
2018-12-12T14:25:41.422Z,5.40
2018-12-12T14:28:09.669Z,5.40
2018-12-12T14:30:37.862Z,5.40
2018-12-12T14:33:06.063Z,5.40
2018-12-12T14:35:34.272Z,5.40
2018-12-12T14:38:02.458Z,5.40
2018-12-12T14:40:30.619Z,5.40
2018-12-12T14:42:58.817Z,5.40
2018-12-12T14:45:26.991Z,5.40
2018-12-12T14:47:55.158Z,5.40
2018-12-12T14:50:23.348Z,5.40
2018-12-12T14:52:51.512Z,5.30
2018-12-12T14:55:19.732Z,5.30
2018-12-12T14:57:47.924Z,5.30
2018-12-12T15:00:16.325Z,5.20
2018-12-12T15:02:44.642Z,5.20
2018-12-12T15:05:13.079Z,5.20
2018-12-12T15:07:41.237Z,5.20
2018-12-12T15:10:09.493Z,5.10
2018-12-12T15:12:37.689Z,5.10
2018-12-12T15:15:05.967Z,5.10
2018-12-12T15:17:34.149Z,5.10
2018-12-12T15:20:02.601Z,5.20
2018-12-12T15:22:31.237Z,5.10
2018-12-12T15:24:59.436Z,5.10
2018-12-12T15:27:27.680Z,5.10
2018-12-12T15:29:55.881Z,5.10
2018-12-12T15:32:24.068Z,5.20
2018-12-12T15:34:52.228Z,5.20
2018-12-12T15:37:20.424Z,5.20
2018-12-12T15:39:48.614Z,5.20
2018-12-12T15:42:16.792Z,5.20
2018-12-12T15:44:45.062Z,5.10
2018-12-12T15:47:13.216Z,5.10
2018-12-12T15:49:41.412Z,5.10
2018-12-12T15:52:09.584Z,5.00
2018-12-12T15:54:37.802Z,5.00
2018-12-12T15:57:05.964Z,5.00
2018-12-12T15:59:34.175Z,4.90
2018-12-12T16:02:02.495Z,4.90
2018-12-12T16:04:31.047Z,4.90
2018-12-12T16:06:59.442Z,4.90
2018-12-12T16:09:27.619Z,4.80
2018-12-12T16:11:55.825Z,4.70
2018-12-12T16:14:23.965Z,4.60
2018-12-12T16:16:52.179Z,4.50
2018-12-12T16:19:20.507Z,4.40
2018-12-12T16:21:48.755Z,4.30
2018-12-12T16:24:17.189Z,4.20
2018-12-12T16:26:45.471Z,4.10
2018-12-12T16:29:13.709Z,4.00
2018-12-12T16:31:41.888Z,3.90
2018-12-12T16:34:10.064Z,3.90
2018-12-12T16:36:38.247Z,3.90
2018-12-12T16:39:06.701Z,3.90
2018-12-12T16:41:34.907Z,3.90
2018-12-12T16:44:03.214Z,3.90
2018-12-12T16:46:31.397Z,3.90
2018-12-12T16:48:59.623Z,3.80
2018-12-12T16:51:27.804Z,3.80
2018-12-12T16:53:55.998Z,3.80
2018-12-12T16:56:24.326Z,3.80
2018-12-12T16:58:52.504Z,3.70
2018-12-12T17:01:20.669Z,3.70
2018-12-12T17:03:48.852Z,3.60
2018-12-12T17:06:17.034Z,3.50
2018-12-12T17:08:45.289Z,3.40
2018-12-12T17:11:13.404Z,3.40
2018-12-12T17:13:41.656Z,3.30
2018-12-12T17:16:09.820Z,3.20
2018-12-12T17:18:38.591Z,3.10
2018-12-12T17:21:06.758Z,3.10
2018-12-12T17:23:34.940Z,3.00
2018-12-12T17:26:03.126Z,3.00
2018-12-12T17:28:31.397Z,2.90
2018-12-12T17:30:59.585Z,2.90
2018-12-12T17:33:27.788Z,2.90
2018-12-12T17:35:56.330Z,2.80
2018-12-12T17:38:24.473Z,2.70
2018-12-12T17:40:53.573Z,2.70
2018-12-12T17:43:22.854Z,2.70
2018-12-12T17:45:51.224Z,2.60
2018-12-12T17:48:19.402Z,2.60
2018-12-12T17:50:47.568Z,2.50
2018-12-12T17:53:15.794Z,2.50
2018-12-12T17:55:43.975Z,2.50
2018-12-12T17:58:12.140Z,2.50
2018-12-12T18:00:40.398Z,2.40
2018-12-12T18:03:08.660Z,2.40
2018-12-12T18:05:36.869Z,2.40
2018-12-12T18:08:05.080Z,2.30
2018-12-12T18:10:33.282Z,2.30
2018-12-12T18:13:01.444Z,2.30
2018-12-12T18:15:29.709Z,2.20
2018-12-12T18:17:57.872Z,2.20
2018-12-12T18:20:26.104Z,2.20
2018-12-12T18:22:54.299Z,2.10
2018-12-12T18:25:22.489Z,2.10
2018-12-12T18:27:50.769Z,2.10
2018-12-12T18:30:19.023Z,2.00
2018-12-12T18:32:47.505Z,2.00
2018-12-12T18:35:21.811Z,2.00
2018-12-12T18:37:49.136Z,2.00
2018-12-12T18:40:19.655Z,2.00
2018-12-12T18:42:48.094Z,1.90
2018-12-12T18:45:16.399Z,1.90
2018-12-12T18:47:45.023Z,1.90
2018-12-12T18:50:13.264Z,1.80
2018-12-12T18:52:41.495Z,1.80
2018-12-12T18:55:10.068Z,1.80
2018-12-12T18:57:38.331Z,1.70
2018-12-12T19:00:06.650Z,1.70
2018-12-12T19:02:34.857Z,1.70
2018-12-12T19:05:03.388Z,1.70
2018-12-12T19:07:35.445Z,1.70
2018-12-12T19:10:06.278Z,1.70
2018-12-12T19:12:35.673Z,1.70
2018-12-12T19:15:05.815Z,1.60
2018-12-12T19:17:34.077Z,1.60
2018-12-12T19:20:03.123Z,1.60
2018-12-12T19:22:31.332Z,1.60
2018-12-12T19:24:59.588Z,1.50
2018-12-12T19:27:27.817Z,1.50
2018-12-12T19:29:56.012Z,1.50
2018-12-12T19:32:24.232Z,1.50
2018-12-12T19:34:52.461Z,1.50
2018-12-12T19:37:20.668Z,1.40
2018-12-12T19:39:48.883Z,1.40
2018-12-12T19:42:17.042Z,1.40
2018-12-12T19:44:45.398Z,1.40
2018-12-12T19:47:13.712Z,1.50
2018-12-12T19:49:41.934Z,1.50
2018-12-12T19:52:10.115Z,1.50
2018-12-12T19:54:38.359Z,1.50
2018-12-12T19:57:06.531Z,1.40
2018-12-12T19:59:35.016Z,1.40
2018-12-12T20:02:03.227Z,1.40
2018-12-12T20:04:31.449Z,1.40
2018-12-12T20:06:59.610Z,1.30
2018-12-12T20:09:27.885Z,1.30
2018-12-12T20:11:56.079Z,1.30
2018-12-12T20:14:24.269Z,1.40
2018-12-12T20:16:52.460Z,1.40
2018-12-12T20:19:20.659Z,1.40
2018-12-12T20:21:48.879Z,1.40
2018-12-12T20:24:17.224Z,1.40
2018-12-12T20:26:45.436Z,1.40
2018-12-12T20:29:13.606Z,1.40
2018-12-12T20:31:41.834Z,1.40
2018-12-12T20:34:10.158Z,1.30
2018-12-12T20:36:41.311Z,1.30
2018-12-12T20:39:09.470Z,1.40
2018-12-12T20:41:37.949Z,1.30
2018-12-12T20:44:06.343Z,1.40
2018-12-12T20:46:34.607Z,1.40
2018-12-12T20:49:02.867Z,1.40
2018-12-12T20:51:31.078Z,1.50
2018-12-12T20:53:59.280Z,1.50
2018-12-12T20:56:27.509Z,1.60
2018-12-12T20:58:55.711Z,1.70
2018-12-12T21:01:23.892Z,1.70
2018-12-12T21:03:52.119Z,1.80
2018-12-12T21:06:21.030Z,1.90
2018-12-12T21:08:49.361Z,2.00
2018-12-12T21:11:17.541Z,2.00
2018-12-12T21:13:45.807Z,2.10
2018-12-12T21:16:13.982Z,2.20
2018-12-12T21:18:42.208Z,2.30
2018-12-12T21:21:10.358Z,2.40
2018-12-12T21:23:38.568Z,2.40
2018-12-12T21:26:06.977Z,2.50
2018-12-12T21:28:35.264Z,2.60
2018-12-12T21:31:04.128Z,2.70
2018-12-12T21:33:32.333Z,2.80
2018-12-12T21:36:00.910Z,2.80
2018-12-12T21:38:29.420Z,2.90
2018-12-12T21:40:57.706Z,2.90
2018-12-12T21:43:25.898Z,3.00
2018-12-12T21:45:54.073Z,3.00
2018-12-12T21:48:22.241Z,3.10
2018-12-12T21:50:50.912Z,3.10
2018-12-12T21:53:19.209Z,3.10
2018-12-12T21:55:47.377Z,3.10
2018-12-12T21:58:15.602Z,3.20
2018-12-12T22:00:43.808Z,3.10
2018-12-12T22:03:12.013Z,3.20
2018-12-12T22:05:40.268Z,3.20
2018-12-12T22:08:08.486Z,3.20
2018-12-12T22:10:36.809Z,3.30
2018-12-12T22:13:05.049Z,3.30
2018-12-12T22:15:33.249Z,3.30
2018-12-12T22:18:01.437Z,3.30
2018-12-12T22:20:29.888Z,3.30
2018-12-12T22:22:58.181Z,3.40
2018-12-12T22:25:26.395Z,3.40
2018-12-12T22:27:54.555Z,3.40
2018-12-12T22:30:22.752Z,3.40
2018-12-12T22:32:50.943Z,3.40
2018-12-12T22:35:19.160Z,3.40
2018-12-12T22:37:47.388Z,3.40
2018-12-12T22:40:15.613Z,3.40
2018-12-12T22:42:43.849Z,3.40
2018-12-12T22:45:12.439Z,3.40
2018-12-12T22:47:40.727Z,3.40
2018-12-12T22:50:08.947Z,3.50
2018-12-12T22:52:37.123Z,3.50
2018-12-12T22:55:05.384Z,3.40
2018-12-12T22:57:33.584Z,3.50
2018-12-12T23:00:01.750Z,3.50
2018-12-12T23:02:29.914Z,3.50
2018-12-12T23:04:58.096Z,3.50
2018-12-12T23:07:26.314Z,3.60
2018-12-12T23:09:54.492Z,3.60
2018-12-12T23:12:22.650Z,3.60
2018-12-12T23:14:50.850Z,3.70
2018-12-12T23:17:19.008Z,3.70
2018-12-12T23:19:47.270Z,3.70
2018-12-12T23:22:15.456Z,3.70
2018-12-12T23:24:43.646Z,3.70
2018-12-12T23:27:11.820Z,3.70
2018-12-12T23:29:40.004Z,3.70
2018-12-12T23:32:08.180Z,3.60
2018-12-12T23:34:36.390Z,3.60
2018-12-12T23:37:04.548Z,3.60
2018-12-12T23:39:32.733Z,3.50
2018-12-12T23:42:00.903Z,3.50
2018-12-12T23:44:29.093Z,3.50
2018-12-12T23:46:57.348Z,3.50
2018-12-12T23:49:25.537Z,3.40
2018-12-12T23:51:53.703Z,3.40
2018-12-12T23:54:21.893Z,3.40
2018-12-12T23:56:50.047Z,3.40
2018-12-12T23:59:18.233Z,3.40
